Time;durP1;ratioP1;P1;durP2;ratioP2;P2;SDS_P1;SDS_P2;PMS_P1;PMS_P2;Temp;Humidity;BMP_temperature;BMP_pressure;BME280_temperature;BME280_humidity;BME280_pressure;Samples;Min_cycle;Max_cycle;Signal;HPM_P1;HPM_P2
2022/05/22 00:00:49;0.00;0.00;0.62;0.00;0.00;0.62;2.33;1.50;;;25.20;28.50;;;;;;2247639;61;20363;-59
2022/05/22 00:03:33;0.00;0.00;0.62;0.00;0.00;0.62;3.40;1.90;;;25.20;28.50;;;;;;2247619;61;20869;-58
2022/05/22 00:06:18;0.00;0.00;0.62;0.00;0.00;0.62;2.57;1.47;;;25.20;28.50;;;;;;2248435;61;20395;-59
2022/05/22 00:09:03;0.00;0.00;0.62;0.00;0.00;0.62;2.97;1.47;;;25.20;28.50;;;;;;2247601;61;20427;-54
2022/05/22 00:11:48;0.00;0.00;0.62;0.00;0.00;0.62;3.87;1.60;;;25.20;28.50;;;;;;2247918;61;20367;-55
2022/05/22 00:14:35;0.00;0.00;0.62;0.00;0.00;0.62;3.33;1.70;;;25.20;28.30;;;;;;2248229;61;20446;-53
2022/05/22 00:17:20;0.00;0.00;0.62;0.00;0.00;0.62;3.97;2.30;;;25.20;28.30;;;;;;2247455;61;20419;-56
2022/05/22 00:20:07;0.00;0.00;0.62;0.00;0.00;0.62;4.13;2.27;;;25.20;28.30;;;;;;2248356;61;20375;-56
2022/05/22 00:22:51;0.00;0.00;0.62;0.00;0.00;0.62;6.10;2.90;;;25.10;28.10;;;;;;2247848;61;20368;-53
2022/05/22 00:25:36;0.00;0.00;0.62;0.00;0.00;0.62;4.43;1.60;;;25.10;28.10;;;;;;2247463;61;20484;-58
2022/05/22 00:28:21;0.00;0.00;0.62;0.00;0.00;0.62;3.47;1.70;;;25.00;28.00;;;;;;2248605;61;20467;-56
2022/05/22 00:31:05;0.00;0.00;0.62;0.00;0.00;0.62;6.27;1.90;;;25.00;28.10;;;;;;2247512;61;20456;-58
2022/05/22 00:33:51;0.00;0.00;0.62;0.00;0.00;0.62;3.13;1.70;;;25.00;28.20;;;;;;2249081;61;20364;-53
2022/05/22 00:36:36;0.00;0.00;0.62;0.00;0.00;0.62;3.33;1.60;;;25.00;28.30;;;;;;2249208;61;20430;-54
2022/05/22 00:39:20;0.00;0.00;0.62;0.00;0.00;0.62;3.13;1.77;;;25.00;28.40;;;;;;2248510;61;20825;-56
2022/05/22 00:42:15;0.00;0.00;0.62;0.00;0.00;0.62;3.40;1.50;;;25.00;28.40;;;;;;2248872;61;20490;-54
2022/05/22 00:45:00;0.00;0.00;0.62;0.00;0.00;0.62;3.40;1.57;;;25.00;28.50;;;;;;2251053;61;21129;-56
2022/05/22 00:47:45;0.00;0.00;0.62;0.00;0.00;0.62;4.20;1.50;;;25.00;28.50;;;;;;2248256;61;20436;-56
2022/05/22 00:50:33;0.00;0.00;0.62;0.00;0.00;0.62;3.17;1.60;;;25.00;28.50;;;;;;2249020;61;20368;-56
2022/05/22 00:53:19;0.00;0.00;0.62;0.00;0.00;0.62;3.53;1.83;;;25.00;28.60;;;;;;2250749;61;20468;-56
2022/05/22 00:56:07;0.00;0.00;0.62;0.00;0.00;0.62;4.90;2.33;;;25.00;28.50;;;;;;2249226;61;20422;-55
2022/05/22 00:58:54;0.00;0.00;0.62;0.00;0.00;0.62;2.83;1.60;;;25.00;28.50;;;;;;2249133;61;20376;-56
2022/05/22 01:01:40;0.00;0.00;0.62;0.00;0.00;0.62;3.47;1.90;;;25.10;28.50;;;;;;2252825;61;20456;-59
2022/05/22 01:04:30;0.00;0.00;0.62;0.00;0.00;0.62;2.80;1.30;;;25.10;28.60;;;;;;2249307;61;20953;-55
2022/05/22 01:07:18;0.00;0.00;0.62;0.00;0.00;0.62;4.23;1.53;;;25.10;28.50;;;;;;2248182;61;21180;-55
2022/05/22 01:10:04;0.00;0.00;0.62;0.00;0.00;0.62;2.30;1.40;;;25.10;28.50;;;;;;2247963;61;20368;-59
2022/05/22 01:12:49;0.00;0.00;0.62;0.00;0.00;0.62;4.57;1.70;;;25.10;28.50;;;;;;2249074;61;20415;-57
2022/05/22 01:15:34;0.00;0.00;0.62;0.00;0.00;0.62;2.97;1.80;;;25.10;28.50;;;;;;2248086;61;20380;-59
2022/05/22 01:18:19;0.00;0.00;0.62;0.00;0.00;0.62;3.33;1.40;;;25.20;28.50;;;;;;2248653;61;20403;-54
2022/05/22 01:21:10;0.00;0.00;0.62;0.00;0.00;0.62;2.93;1.77;;;25.20;28.50;;;;;;2248097;61;20364;-57
2022/05/22 01:23:57;0.00;0.00;0.62;0.00;0.00;0.62;2.20;1.57;;;25.20;28.50;;;;;;2250411;61;20408;-55
2022/05/22 01:26:45;0.00;0.00;0.62;0.00;0.00;0.62;3.47;1.90;;;25.20;28.50;;;;;;2248788;61;20399;-54
2022/05/22 01:29:48;0.00;0.00;0.62;0.00;0.00;0.62;3.10;1.87;;;25.20;28.50;;;;;;2253538;61;20379;-58
2022/05/22 01:32:33;0.00;0.00;0.62;0.00;0.00;0.62;3.00;1.63;;;25.20;28.50;;;;;;2247396;61;20499;-53
2022/05/22 01:35:25;0.00;0.00;0.62;0.00;0.00;0.62;2.67;1.50;;;25.20;28.50;;;;;;2248607;61;20418;-52
2022/05/22 01:38:10;0.00;0.00;0.62;0.00;0.00;0.62;3.30;1.77;;;25.20;28.50;;;;;;2247373;61;20364;-57
2022/05/22 01:41:02;0.00;0.00;0.62;0.00;0.00;0.62;2.70;1.73;;;25.20;28.50;;;;;;2248243;61;20383;-54
2022/05/22 01:43:57;0.00;0.00;0.62;0.00;0.00;0.62;4.03;1.40;;;25.20;28.50;;;;;;2253449;61;20900;-55
2022/05/22 01:46:42;0.00;0.00;0.62;0.00;0.00;0.62;2.20;1.20;;;25.20;28.50;;;;;;2247875;61;20947;-56
2022/05/22 01:49:29;0.00;0.00;0.62;0.00;0.00;0.62;2.83;1.60;;;25.20;28.50;;;;;;2248269;61;20368;-57
2022/05/22 01:52:14;0.00;0.00;0.62;0.00;0.00;0.62;3.00;1.50;;;25.20;28.30;;;;;;2247568;61;20414;-57
2022/05/22 01:55:00;0.00;0.00;0.62;0.00;0.00;0.62;6.17;2.23;;;25.20;28.20;;;;;;2248004;61;20379;-57
2022/05/22 01:57:47;0.00;0.00;0.62;0.00;0.00;0.62;4.23;1.67;;;25.20;28.20;;;;;;2251005;61;20423;-59
2022/05/22 02:00:35;0.00;0.00;0.62;0.00;0.00;0.62;2.93;2.13;;;25.10;28.10;;;;;;2246821;61;20367;-58
2022/05/22 02:03:20;0.00;0.00;0.62;0.00;0.00;0.62;5.30;1.70;;;25.10;28.10;;;;;;2248292;61;20391;-57
2022/05/22 02:06:05;0.00;0.00;0.62;0.00;0.00;0.62;2.60;1.70;;;25.00;27.90;;;;;;2248369;61;20459;-53
2022/05/22 02:08:51;0.00;0.00;0.62;0.00;0.00;0.62;4.07;1.50;;;25.00;28.00;;;;;;2247684;61;20367;-55
2022/05/22 02:11:35;0.00;0.00;0.62;0.00;0.00;0.62;3.13;1.87;;;24.90;28.10;;;;;;2252537;61;20411;-51
2022/05/22 02:14:22;0.00;0.00;0.62;0.00;0.00;0.62;4.00;1.60;;;24.90;28.20;;;;;;2247784;61;20807;-59
2022/05/22 02:17:15;0.00;0.00;0.62;0.00;0.00;0.62;2.60;1.70;;;24.90;28.20;;;;;;2247905;61;20387;-51
2022/05/22 02:20:09;0.00;0.00;0.62;0.00;0.00;0.62;5.30;2.47;;;24.80;28.10;;;;;;2248540;61;20460;-54
2022/05/22 02:22:58;0.00;0.00;0.62;0.00;0.00;0.62;3.60;1.17;;;24.70;28.00;;;;;;2250136;61;20411;-57
2022/05/22 02:25:50;0.00;0.00;0.62;0.00;0.00;0.62;2.47;1.23;;;24.70;28.10;;;;;;2248251;61;21132;-53
2022/05/22 02:28:35;0.00;0.00;0.62;0.00;0.00;0.62;2.03;1.10;;;24.60;28.10;;;;;;2247949;61;20364;-55
2022/05/22 02:31:23;0.00;0.00;0.62;0.00;0.00;0.62;2.23;1.53;;;24.60;28.20;;;;;;2249681;61;20371;-52
2022/05/22 02:34:12;0.00;0.00;0.62;0.00;0.00;0.62;2.57;1.60;;;24.60;28.80;;;;;;2248507;61;20380;-56
2022/05/22 02:36:57;0.00;0.00;0.62;0.00;0.00;0.62;2.67;1.40;;;24.60;28.30;;;;;;2247843;61;20783;-53
2022/05/22 02:39:42;0.00;0.00;0.62;0.00;0.00;0.62;2.90;1.40;;;24.60;28.40;;;;;;2253781;61;20364;-56
2022/05/22 02:42:49;0.00;0.00;0.62;0.00;0.00;0.62;3.93;1.70;;;24.60;28.40;;;;;;2248458;61;20367;-57
2022/05/22 02:45:40;0.00;0.00;0.62;0.00;0.00;0.62;2.13;1.30;;;24.60;28.40;;;;;;2247181;61;20462;-57
2022/05/22 02:48:29;0.00;0.00;0.62;0.00;0.00;0.62;2.70;1.30;;;24.60;28.50;;;;;;2254078;61;20407;-59
2022/05/22 02:51:21;0.00;0.00;0.62;0.00;0.00;0.62;4.00;1.60;;;24.60;28.50;;;;;;2247339;61;20411;-54
2022/05/22 02:54:06;0.00;0.00;0.62;0.00;0.00;0.62;3.53;1.43;;;24.70;28.50;;;;;;2247794;61;20363;-59
2022/05/22 02:56:56;0.00;0.00;0.62;0.00;0.00;0.62;4.47;1.10;;;24.70;28.50;;;;;;2248638;61;20384;-57
2022/05/22 02:59:50;0.00;0.00;0.62;0.00;0.00;0.62;1.73;1.20;;;24.70;28.50;;;;;;2246989;61;20835;-58
2022/05/22 03:02:49;0.00;0.00;0.62;0.00;0.00;0.62;2.80;1.23;;;24.70;28.50;;;;;;2248260;61;20916;-53
2022/05/22 03:08:39;0.00;0.00;0.62;0.00;0.00;0.62;9.40;1.50;;;24.70;28.50;;;;;;2253290;61;20415;-54
2022/05/22 03:11:24;0.00;0.00;0.62;0.00;0.00;0.62;5.10;1.63;;;24.70;28.40;;;;;;2248067;61;20360;-59
2022/05/22 03:14:10;0.00;0.00;0.62;0.00;0.00;0.62;1.90;1.40;;;24.70;28.40;;;;;;2247117;61;20383;-59
2022/05/22 03:16:55;0.00;0.00;0.62;0.00;0.00;0.62;2.33;1.40;;;24.70;28.40;;;;;;2248408;61;20932;-54
2022/05/22 03:19:48;0.00;0.00;0.62;0.00;0.00;0.62;2.53;1.30;;;24.70;28.90;;;;;;2247596;61;20360;-57
2022/05/22 03:22:34;0.00;0.00;0.62;0.00;0.00;0.62;2.40;1.30;;;24.70;28.40;;;;;;2247404;61;20364;-53
2022/05/22 03:25:20;0.00;0.00;0.62;0.00;0.00;0.62;1.80;1.10;;;24.70;28.50;;;;;;2248420;61;20426;-55
2022/05/22 03:28:05;0.00;0.00;0.62;0.00;0.00;0.62;2.27;1.40;;;24.70;28.40;;;;;;2253099;61;20402;-54
2022/05/22 03:30:54;0.00;0.00;0.62;0.00;0.00;0.62;4.93;1.50;;;24.70;28.40;;;;;;2252811;61;20403;-57
2022/05/22 03:33:39;0.00;0.00;0.62;0.00;0.00;0.62;2.13;1.20;;;24.70;28.50;;;;;;2247902;61;20769;-59
2022/05/22 03:36:24;0.00;0.00;0.62;0.00;0.00;0.62;2.63;1.50;;;24.70;28.50;;;;;;2247825;61;20850;-59
2022/05/22 03:39:13;0.00;0.00;0.62;0.00;0.00;0.62;2.70;1.53;;;24.70;28.50;;;;;;2248407;61;20391;-52
2022/05/22 03:41:58;0.00;0.00;0.62;0.00;0.00;0.62;2.53;1.27;;;24.70;28.50;;;;;;2247496;61;20367;-59
2022/05/22 03:44:43;0.00;0.00;0.62;0.00;0.00;0.62;2.30;1.60;;;24.70;28.50;;;;;;2250089;61;20911;-55
2022/05/22 03:47:28;0.00;0.00;0.62;0.00;0.00;0.62;3.93;1.43;;;24.70;28.50;;;;;;2248257;61;20591;-57
2022/05/22 03:50:24;0.00;0.00;0.62;0.00;0.00;0.62;1.93;1.10;;;24.70;28.40;;;;;;2247316;61;20371;-58
2022/05/22 03:53:09;0.00;0.00;0.62;0.00;0.00;0.62;4.63;1.53;;;24.70;28.40;;;;;;2247565;61;20454;-59
2022/05/22 03:56:11;0.00;0.00;0.62;0.00;0.00;0.62;2.33;1.20;;;24.70;28.40;;;;;;2253556;61;20379;-54
2022/05/22 03:58:56;0.00;0.00;0.62;0.00;0.00;0.62;1.87;1.13;;;24.70;28.40;;;;;;2247578;61;20418;-59
2022/05/22 04:01:41;0.00;0.00;0.62;0.00;0.00;0.62;2.33;1.47;;;24.70;28.40;;;;;;2247508;61;20359;-58
2022/05/22 04:04:26;0.00;0.00;0.62;0.00;0.00;0.62;2.20;1.60;;;24.80;28.50;;;;;;2250307;61;21150;-58
2022/05/22 04:07:11;0.00;0.00;0.62;0.00;0.00;0.62;3.00;1.73;;;24.80;28.50;;;;;;2247516;61;20395;-54
2022/05/22 04:09:57;0.00;0.00;0.62;0.00;0.00;0.62;2.77;1.40;;;24.80;28.50;;;;;;2253405;61;20795;-55
2022/05/22 04:12:53;0.00;0.00;0.62;0.00;0.00;0.62;3.00;1.60;;;24.70;28.30;;;;;;2247518;61;20364;-59
2022/05/22 04:15:38;0.00;0.00;0.62;0.00;0.00;0.62;4.00;1.23;;;24.70;28.30;;;;;;2247388;61;20792;-55
2022/05/22 04:18:25;0.00;0.00;0.62;0.00;0.00;0.62;2.53;1.50;;;24.70;28.20;;;;;;2248159;61;20997;-58
2022/05/22 04:21:11;0.00;0.00;0.62;0.00;0.00;0.62;2.87;1.80;;;24.70;28.30;;;;;;2246177;61;20363;-59
2022/05/22 04:27:10;0.00;0.00;0.62;0.00;0.00;0.62;2.23;1.20;;;24.60;28.30;;;;;;2250454;61;20427;-57
2022/05/22 04:29:57;0.00;0.00;0.62;0.00;0.00;0.62;3.17;1.50;;;24.60;28.40;;;;;;2247178;61;20866;-56
2022/05/22 04:32:45;0.00;0.00;0.62;0.00;0.00;0.62;2.07;1.33;;;24.60;28.40;;;;;;2253266;61;20443;-56
2022/05/22 04:35:30;0.00;0.00;0.62;0.00;0.00;0.62;1.70;1.10;;;24.60;28.50;;;;;;2247218;61;20479;-59
2022/05/22 04:38:15;0.00;0.00;0.62;0.00;0.00;0.62;4.03;1.67;;;24.60;28.50;;;;;;2247773;61;20422;-53
2022/05/22 04:41:03;0.00;0.00;0.62;0.00;0.00;0.62;3.20;1.60;;;24.70;28.60;;;;;;2247906;61;20363;-52
2022/05/22 04:43:47;0.00;0.00;0.62;0.00;0.00;0.62;2.50;1.10;;;24.70;28.60;;;;;;2246709;61;20376;-56
2022/05/22 04:46:34;0.00;0.00;0.62;0.00;0.00;0.62;2.67;1.43;;;24.60;28.50;;;;;;2247776;61;20402;-58
2022/05/22 04:49:18;0.00;0.00;0.62;0.00;0.00;0.62;2.33;1.57;;;24.60;28.50;;;;;;2248265;61;20408;-58
2022/05/22 04:52:04;0.00;0.00;0.62;0.00;0.00;0.62;2.13;1.53;;;24.60;29.10;;;;;;2246607;61;20448;-57
2022/05/22 04:54:52;0.00;0.00;0.62;0.00;0.00;0.62;2.93;1.60;;;24.60;28.60;;;;;;2253568;61;20888;-53
2022/05/22 04:57:38;0.00;0.00;0.62;0.00;0.00;0.62;2.20;1.43;;;24.60;28.50;;;;;;2252754;61;20359;-60
2022/05/22 05:00:24;0.00;0.00;0.62;0.00;0.00;0.62;2.27;1.20;;;24.60;28.60;;;;;;2253089;61;20367;-57
2022/05/22 05:03:25;0.00;0.00;0.62;0.00;0.00;0.62;3.23;1.50;;;24.60;28.60;;;;;;2250868;61;20448;-57
2022/05/22 05:06:10;0.00;0.00;0.62;0.00;0.00;0.62;3.00;1.50;;;24.60;28.60;;;;;;2246841;61;20400;-57
2022/05/22 05:08:58;0.00;0.00;0.62;0.00;0.00;0.62;5.07;1.77;;;24.60;28.50;;;;;;2247861;61;20780;-57
2022/05/22 05:11:49;0.00;0.00;0.62;0.00;0.00;0.62;3.23;1.77;;;24.60;28.50;;;;;;2246850;61;20414;-58
2022/05/22 05:14:33;0.00;0.00;0.62;0.00;0.00;0.62;3.23;1.37;;;24.60;28.60;;;;;;2247244;61;20363;-56
2022/05/22 05:17:18;0.00;0.00;0.62;0.00;0.00;0.62;2.00;1.20;;;24.50;28.60;;;;;;2248200;61;20780;-52
2022/05/22 05:20:07;0.00;0.00;0.62;0.00;0.00;0.62;2.33;1.60;;;24.50;28.50;;;;;;2247360;61;20363;-51
2022/05/22 05:23:06;0.00;0.00;0.62;0.00;0.00;0.62;2.70;1.73;;;24.50;28.60;;;;;;2253873;61;20422;-53
2022/05/22 05:25:59;0.00;0.00;0.62;0.00;0.00;0.62;2.70;1.67;;;24.50;28.50;;;;;;2247731;61;21300;-55
2022/05/22 05:28:43;0.00;0.00;0.62;0.00;0.00;0.62;5.17;2.10;;;24.50;28.40;;;;;;2248167;61;20438;-54
2022/05/22 05:31:30;0.00;0.00;0.62;0.00;0.00;0.62;3.00;1.80;;;24.40;28.80;;;;;;2248255;61;20406;-54
2022/05/22 05:34:15;0.00;0.00;0.62;0.00;0.00;0.62;3.60;1.83;;;24.40;28.30;;;;;;2248024;61;20503;-54
2022/05/22 05:37:21;0.00;0.00;0.62;0.00;0.00;0.62;2.83;1.73;;;24.40;28.40;;;;;;2251472;61;20448;-56
2022/05/22 05:40:10;0.00;0.00;0.62;0.00;0.00;0.62;3.43;2.17;;;24.30;28.40;;;;;;2251206;61;20368;-54
2022/05/22 05:43:05;0.00;0.00;0.62;0.00;0.00;0.62;3.47;1.43;;;24.30;28.50;;;;;;2247562;61;20364;-59
2022/05/22 05:45:50;0.00;0.00;0.62;0.00;0.00;0.62;2.27;1.30;;;24.30;28.50;;;;;;2248577;61;20400;-54
2022/05/22 05:48:35;0.00;0.00;0.62;0.00;0.00;0.62;2.97;1.63;;;24.30;28.50;;;;;;2250584;61;20423;-57
2022/05/22 05:51:21;0.00;0.00;0.62;0.00;0.00;0.62;2.67;1.40;;;24.30;28.60;;;;;;2247636;61;20368;-56
2022/05/22 05:54:13;0.00;0.00;0.62;0.00;0.00;0.62;7.30;1.97;;;24.30;28.60;;;;;;2248338;61;20473;-57
2022/05/22 05:57:32;0.00;0.00;0.62;0.00;0.00;0.62;3.50;1.90;;;24.30;28.60;;;;;;2253082;61;20383;-56
2022/05/22 06:00:21;0.00;0.00;0.62;0.00;0.00;0.62;5.47;2.47;;;24.30;28.50;;;;;;2248482;61;20915;-58
2022/05/22 06:03:09;0.00;0.00;0.62;0.00;0.00;0.62;3.57;1.90;;;24.20;28.40;;;;;;2250455;61;20415;-55
2022/05/22 06:05:54;0.00;0.00;0.62;0.00;0.00;0.62;5.80;2.50;;;24.20;28.40;;;;;;2247586;61;20435;-55
2022/05/22 06:08:52;0.00;0.00;0.62;0.00;0.00;0.62;3.33;1.80;;;24.20;28.50;;;;;;2248481;61;20372;-57
2022/05/22 06:11:57;0.00;0.00;0.62;0.00;0.00;0.62;3.33;2.00;;;24.20;28.60;;;;;;2247333;61;20407;-55
2022/05/22 06:14:52;0.00;0.00;0.62;0.00;0.00;0.62;2.73;1.70;;;24.10;28.60;;;;;;2251576;61;20419;-56
2022/05/22 06:17:43;0.00;0.00;0.62;0.00;0.00;0.62;3.17;1.47;;;24.10;28.60;;;;;;2250682;61;20407;-57
2022/05/22 06:20:29;0.00;0.00;0.62;0.00;0.00;0.62;3.60;1.80;;;24.10;28.70;;;;;;2252730;61;20979;-58
2022/05/22 06:23:21;0.00;0.00;0.62;0.00;0.00;0.62;2.50;1.53;;;24.10;28.70;;;;;;2251024;61;20380;-57
2022/05/22 06:26:24;0.00;0.00;0.62;0.00;0.00;0.62;2.20;1.60;;;24.10;28.70;;;;;;2248402;61;20411;-61
2022/05/22 06:29:30;0.00;0.00;0.62;0.00;0.00;0.62;3.20;1.50;;;24.10;28.80;;;;;;2243299;61;20376;-55
2022/05/22 06:32:34;0.00;0.00;0.62;0.00;0.00;0.62;3.90;2.23;;;24.20;28.80;;;;;;2247143;61;20843;-58
2022/05/22 06:35:46;0.00;0.00;0.62;0.00;0.00;0.62;5.77;1.90;;;24.20;28.80;;;;;;2247532;61;20928;-56
2022/05/22 06:42:25;0.00;0.00;0.62;0.00;0.00;0.62;3.80;1.70;;;24.20;28.80;;;;;;2246891;61;20443;-57
2022/05/22 06:45:24;0.00;0.00;0.62;0.00;0.00;0.62;4.03;2.77;;;24.20;28.80;;;;;;2247907;61;20450;-58
2022/05/22 06:48:35;0.00;0.00;0.62;0.00;0.00;0.62;4.10;1.67;;;24.20;28.80;;;;;;2248075;61;20878;-59
2022/05/22 06:51:29;0.00;0.00;0.62;0.00;0.00;0.62;4.33;1.63;;;24.30;28.80;;;;;;2247898;61;20392;-56
2022/05/22 06:54:24;0.00;0.00;0.62;0.00;0.00;0.62;3.90;1.67;;;24.30;28.80;;;;;;2247832;61;20367;-60
2022/05/22 06:57:22;0.00;0.00;0.62;0.00;0.00;0.62;5.23;1.90;;;24.30;28.80;;;;;;2247045;61;20367;-59
2022/05/22 07:00:40;0.00;0.00;0.62;0.00;0.00;0.62;3.90;2.43;;;24.30;28.80;;;;;;2247325;61;20430;-57
2022/05/22 07:03:44;0.00;0.00;0.62;0.00;0.00;0.62;3.87;1.83;;;24.30;28.80;;;;;;2247384;61;20400;-57
2022/05/22 07:06:58;0.00;0.00;0.62;0.00;0.00;0.62;2.87;1.97;;;24.30;28.80;;;;;;2247993;61;20474;-57
2022/05/22 07:10:09;0.00;0.00;0.62;0.00;0.00;0.62;7.73;2.90;;;24.30;28.70;;;;;;2247875;61;20363;-57
2022/05/22 07:13:16;0.00;0.00;0.62;0.00;0.00;0.62;6.10;2.30;;;24.30;28.60;;;;;;2251983;61;20907;-59
2022/05/22 07:16:10;0.00;0.00;0.62;0.00;0.00;0.62;3.10;1.63;;;24.30;28.40;;;;;;2247324;61;20455;-59
2022/05/22 07:19:10;0.00;0.00;0.62;0.00;0.00;0.62;7.43;2.47;;;24.30;28.50;;;;;;2247338;61;20410;-60
2022/05/22 07:22:11;0.00;0.00;0.62;0.00;0.00;0.62;7.00;1.90;;;24.20;28.40;;;;;;2247392;61;20383;-59
2022/05/22 07:25:06;0.00;0.00;0.62;0.00;0.00;0.62;3.87;1.60;;;24.20;28.40;;;;;;2247437;61;20484;-59
2022/05/22 07:28:10;0.00;0.00;0.62;0.00;0.00;0.62;6.57;1.80;;;24.20;28.40;;;;;;2247449;61;20434;-58
2022/05/22 07:30:58;0.00;0.00;0.62;0.00;0.00;0.62;5.40;2.13;;;24.20;28.50;;;;;;2247730;61;20400;-59
2022/05/22 07:34:03;0.00;0.00;0.62;0.00;0.00;0.62;4.23;1.60;;;24.10;28.40;;;;;;2247351;61;20359;-58
2022/05/22 07:37:11;0.00;0.00;0.62;0.00;0.00;0.62;4.10;1.80;;;24.20;28.50;;;;;;2247650;61;20415;-58
2022/05/22 07:40:14;0.00;0.00;0.62;0.00;0.00;0.62;4.30;1.53;;;24.10;28.30;;;;;;2247293;61;20791;-57
2022/05/22 07:43:22;0.00;0.00;0.62;0.00;0.00;0.62;4.80;1.97;;;24.10;28.00;;;;;;2247840;61;20379;-55
2022/05/22 07:46:22;0.00;0.00;0.62;0.00;0.00;0.62;5.90;1.90;;;24.10;27.70;;;;;;2247134;61;20955;-58
2022/05/22 07:53:00;0.00;0.00;0.62;0.00;0.00;0.62;3.70;1.63;;;24.00;27.50;;;;;;2241025;61;20912;-62
2022/05/22 07:55:48;0.00;0.00;0.62;0.00;0.00;0.62;4.20;1.80;;;23.90;27.40;;;;;;2246910;61;20463;-57
2022/05/22 07:58:55;0.00;0.00;0.62;0.00;0.00;0.62;4.00;2.23;;;23.90;27.50;;;;;;2248117;61;20771;-60
2022/05/22 08:01:51;0.00;0.00;0.62;0.00;0.00;0.62;5.60;1.63;;;23.90;27.60;;;;;;2246658;61;20455;-58
2022/05/22 08:04:53;0.00;0.00;0.62;0.00;0.00;0.62;3.90;1.50;;;23.80;27.50;;;;;;2249995;61;20363;-58
2022/05/22 08:07:56;0.00;0.00;0.62;0.00;0.00;0.62;3.93;1.87;;;23.80;27.50;;;;;;2247907;61;20419;-58
2022/05/22 08:11:00;0.00;0.00;0.62;0.00;0.00;0.62;3.27;1.40;;;23.80;27.50;;;;;;2246857;61;20900;-58
2022/05/22 08:13:55;0.00;0.00;0.62;0.00;0.00;0.62;4.10;1.47;;;23.80;27.60;;;;;;2247567;61;20363;-57
2022/05/22 08:16:51;0.00;0.00;0.62;0.00;0.00;0.62;6.43;1.40;;;23.80;27.50;;;;;;2246942;61;20444;-54
2022/05/22 08:19:38;0.00;0.00;0.62;0.00;0.00;0.62;3.70;1.53;;;23.80;27.40;;;;;;2247371;61;20957;-59
2022/05/22 08:22:44;0.00;0.00;0.62;0.00;0.00;0.62;3.47;1.63;;;23.80;27.30;;;;;;2246835;61;20936;-58
2022/05/22 08:25:37;0.00;0.00;0.62;0.00;0.00;0.62;2.00;1.30;;;23.70;27.00;;;;;;2247229;61;20430;-62
2022/05/22 08:28:22;0.00;0.00;0.62;0.00;0.00;0.62;2.83;1.20;;;23.70;27.10;;;;;;2247236;61;20840;-64
2022/05/22 08:31:07;0.00;0.00;0.62;0.00;0.00;0.62;3.00;1.43;;;23.70;27.20;;;;;;2244424;61;20384;-63
2022/05/22 08:33:52;0.00;0.00;0.62;0.00;0.00;0.62;4.23;1.80;;;23.70;27.30;;;;;;2247163;58;20894;-62
2022/05/22 08:36:36;0.00;0.00;0.62;0.00;0.00;0.62;4.30;1.57;;;23.80;27.40;;;;;;2244666;61;20831;-62
2022/05/22 08:39:22;0.00;0.00;0.62;0.00;0.00;0.62;3.47;1.53;;;23.70;27.40;;;;;;2243329;61;20368;-65
2022/05/22 08:42:09;0.00;0.00;0.62;0.00;0.00;0.62;2.60;1.50;;;23.70;27.40;;;;;;2242726;61;20416;-63
2022/05/22 08:44:56;0.00;0.00;0.62;0.00;0.00;0.62;3.47;1.73;;;23.70;27.40;;;;;;2578487;46;20397;-64
2022/05/22 08:47:54;0.00;0.00;0.62;0.00;0.00;0.62;4.40;1.70;;;23.70;27.60;;;;;;2238950;61;20826;-65
2022/05/22 08:50:41;0.00;0.00;0.62;0.00;0.00;0.62;3.30;1.37;;;23.70;27.20;;;;;;2239475;61;20942;-64
2022/05/22 08:53:34;0.00;0.00;0.62;0.00;0.00;0.62;3.33;1.27;;;23.70;27.20;;;;;;2239959;61;20413;-65
2022/05/22 08:59:34;0.00;0.00;0.62;0.00;0.00;0.62;5.23;1.50;;;23.70;27.10;;;;;;2248548;61;20423;-59
2022/05/22 09:02:33;0.00;0.00;0.62;0.00;0.00;0.62;3.40;1.53;;;23.70;27.10;;;;;;2245766;61;20492;-61
2022/05/22 09:05:23;0.00;0.00;0.62;0.00;0.00;0.62;4.00;2.30;;;23.70;27.10;;;;;;2248591;61;20442;-65
2022/05/22 09:08:17;0.00;0.00;0.62;0.00;0.00;0.62;4.07;1.90;;;23.70;27.00;;;;;;2247788;61;20378;-61
2022/05/22 09:11:08;0.00;0.00;0.62;0.00;0.00;0.62;2.77;2.10;;;23.70;26.90;;;;;;2247196;61;20363;-58
2022/05/22 09:14:05;0.00;0.00;0.62;0.00;0.00;0.62;2.30;1.40;;;23.70;26.90;;;;;;2244023;61;20404;-58
2022/05/22 09:16:57;0.00;0.00;0.62;0.00;0.00;0.62;3.40;1.20;;;23.70;27.00;;;;;;2243485;61;20401;-59
2022/05/22 09:19:47;0.00;0.00;0.62;0.00;0.00;0.62;2.90;1.53;;;23.70;27.00;;;;;;2244279;61;20775;-69
2022/05/22 09:22:42;0.00;0.00;0.62;0.00;0.00;0.62;2.30;1.10;;;23.70;27.10;;;;;;2243837;61;20901;-59
2022/05/22 09:25:39;0.00;0.00;0.62;0.00;0.00;0.62;3.17;1.60;;;23.70;27.20;;;;;;2243692;61;20941;-59
2022/05/22 09:28:34;0.00;0.00;0.62;0.00;0.00;0.62;1.77;1.03;;;23.70;27.20;;;;;;2244599;61;20360;-60
2022/05/22 09:31:31;0.00;0.00;0.62;0.00;0.00;0.62;2.60;1.57;;;23.80;27.40;;;;;;2243453;61;20599;-61
2022/05/22 09:34:23;0.00;0.00;0.62;0.00;0.00;0.62;3.70;1.03;;;23.80;27.40;;;;;;2244508;61;20439;-58
2022/05/22 09:37:19;0.00;0.00;0.62;0.00;0.00;0.62;6.27;1.30;;;23.80;27.40;;;;;;2243850;61;20459;-61
2022/05/22 09:40:22;0.00;0.00;0.62;0.00;0.00;0.62;3.00;1.40;;;23.80;27.40;;;;;;2243504;61;20520;-59
2022/05/22 09:43:41;0.00;0.00;0.62;0.00;0.00;0.62;2.07;1.23;;;23.90;27.50;;;;;;2253031;58;20775;-58
2022/05/22 09:46:54;0.00;0.00;0.62;0.00;0.00;0.62;1.93;1.40;;;23.90;27.50;;;;;;2244521;61;20427;-60
2022/05/22 09:49:59;0.00;0.00;0.62;0.00;0.00;0.62;2.37;1.10;;;23.90;27.50;;;;;;2246078;61;20376;-61
2022/05/22 09:52:54;0.00;0.00;0.62;0.00;0.00;0.62;2.00;1.50;;;24.00;27.50;;;;;;2242464;61;20877;-65
2022/05/22 09:55:46;0.00;0.00;0.62;0.00;0.00;0.62;2.47;1.63;;;24.00;27.50;;;;;;2244174;61;20448;-58
2022/05/22 09:59:01;0.00;0.00;0.62;0.00;0.00;0.62;2.00;1.30;;;24.00;27.40;;;;;;2244742;61;20433;-60
2022/05/22 10:01:54;0.00;0.00;0.62;0.00;0.00;0.62;1.83;1.60;;;24.10;27.50;;;;;;2243420;61;20416;-56
2022/05/22 10:04:51;0.00;0.00;0.62;0.00;0.00;0.62;4.13;1.40;;;24.10;27.40;;;;;;2244169;61;20444;-59
2022/05/22 10:07:54;0.00;0.00;0.62;0.00;0.00;0.62;2.70;1.60;;;24.10;27.40;;;;;;2243268;61;20396;-66
2022/05/22 10:10:45;0.00;0.00;0.62;0.00;0.00;0.62;2.67;1.40;;;24.10;27.20;;;;;;2244153;61;20371;-65
2022/05/22 10:13:45;0.00;0.00;0.62;0.00;0.00;0.62;4.00;2.03;;;24.20;27.30;;;;;;2243932;61;20425;-68
2022/05/22 10:16:42;0.00;0.00;0.62;0.00;0.00;0.62;2.83;1.23;;;24.20;27.20;;;;;;2243358;61;20388;-66
2022/05/22 10:19:41;0.00;0.00;0.62;0.00;0.00;0.62;3.97;1.70;;;24.20;27.10;;;;;;2248997;61;20376;-59
2022/05/22 10:22:44;0.00;0.00;0.62;0.00;0.00;0.62;2.63;1.20;;;24.20;27.00;;;;;;2286799;53;20385;-61
2022/05/22 10:25:48;0.00;0.00;0.62;0.00;0.00;0.62;2.27;1.47;;;24.30;27.00;;;;;;2241550;61;20427;-62
2022/05/22 10:28:37;0.00;0.00;0.62;0.00;0.00;0.62;2.60;1.37;;;24.30;27.00;;;;;;2241741;61;20419;-59
2022/05/22 10:31:33;0.00;0.00;0.62;0.00;0.00;0.62;4.07;1.77;;;24.40;27.10;;;;;;2240929;61;20369;-58
2022/05/22 10:34:33;0.00;0.00;0.62;0.00;0.00;0.62;1.90;1.10;;;24.40;26.90;;;;;;2242175;61;20345;-60
2022/05/22 10:37:28;0.00;0.00;0.62;0.00;0.00;0.62;2.70;1.30;;;24.40;26.90;;;;;;2241960;61;20365;-61
2022/05/22 10:40:17;0.00;0.00;0.62;0.00;0.00;0.62;2.87;1.43;;;24.50;26.90;;;;;;2244600;61;20372;-68
2022/05/22 10:43:01;0.00;0.00;0.62;0.00;0.00;0.62;3.17;1.20;;;24.50;26.80;;;;;;2243466;61;20380;-68
2022/05/22 10:45:46;0.00;0.00;0.62;0.00;0.00;0.62;2.70;1.60;;;24.50;26.70;;;;;;2243752;61;20941;-63
2022/05/22 10:48:32;0.00;0.00;0.62;0.00;0.00;0.62;2.20;1.00;;;24.50;26.60;;;;;;2244651;61;20504;-61
2022/05/22 10:51:28;0.00;0.00;0.62;0.00;0.00;0.62;2.87;1.10;;;24.60;26.60;;;;;;2243192;61;20424;-63
2022/05/22 10:54:23;0.00;0.00;0.62;0.00;0.00;0.62;2.90;1.30;;;24.60;26.40;;;;;;2244195;61;20772;-64
2022/05/22 10:57:17;0.00;0.00;0.62;0.00;0.00;0.62;2.70;1.23;;;24.60;26.50;;;;;;2244550;61;20409;-63
2022/05/22 11:00:12;0.00;0.00;0.62;0.00;0.00;0.62;4.63;1.30;;;24.60;26.40;;;;;;2244145;61;20364;-65
2022/05/22 11:03:10;0.00;0.00;0.62;0.00;0.00;0.62;3.10;1.33;;;24.60;26.30;;;;;;2244681;61;20782;-62
2022/05/22 11:05:55;0.00;0.00;0.62;0.00;0.00;0.62;3.23;1.33;;;24.70;26.40;;;;;;2244197;61;20484;-62
2022/05/22 11:08:48;0.00;0.00;0.62;0.00;0.00;0.62;2.70;1.20;;;24.70;26.50;;;;;;2244178;61;20839;-63
2022/05/22 11:11:37;0.00;0.00;0.62;0.00;0.00;0.62;2.83;1.40;;;24.70;26.50;;;;;;2243772;61;20365;-64
2022/05/22 11:14:22;0.00;0.00;0.62;0.00;0.00;0.62;2.37;1.30;;;24.70;26.50;;;;;;2243889;61;20761;-63
2022/05/22 11:17:09;0.00;0.00;0.62;0.00;0.00;0.62;2.20;1.10;;;24.80;26.60;;;;;;2243796;61;20388;-64
2022/05/22 11:19:57;0.00;0.00;0.62;0.00;0.00;0.62;2.47;1.17;;;24.80;26.60;;;;;;2244125;61;20429;-63
2022/05/22 11:22:58;0.00;0.00;0.62;0.00;0.00;0.62;3.80;1.27;;;24.80;26.70;;;;;;2242983;61;20368;-62
2022/05/22 11:26:03;0.00;0.00;0.62;0.00;0.00;0.62;3.17;1.10;;;24.90;26.80;;;;;;2244423;61;20396;-63
2022/05/22 11:29:07;0.00;0.00;0.62;0.00;0.00;0.62;3.10;1.30;;;24.90;26.80;;;;;;2243750;61;20373;-59
2022/05/22 11:32:00;0.00;0.00;0.62;0.00;0.00;0.62;3.63;1.20;;;25.00;26.80;;;;;;2243425;61;20752;-63
2022/05/22 11:35:17;0.00;0.00;0.62;0.00;0.00;0.62;1.70;1.00;;;25.00;26.80;;;;;;2243861;61;20368;-64